createdAt,value
2018-04-08T00:01:47.129Z,46.84
2018-04-08T00:04:50.158Z,47.15
2018-04-08T00:07:52.684Z,45.86
2018-04-08T00:10:55.163Z,45.40
2018-04-08T00:13:57.736Z,46.65
2018-04-08T00:17:00.267Z,47.00
2018-04-08T00:20:02.790Z,45.88
2018-04-08T00:23:05.318Z,46.67
2018-04-08T00:26:07.836Z,45.25
2018-04-08T00:29:10.368Z,43.35
2018-04-08T00:32:12.855Z,45.53
2018-04-08T00:35:15.362Z,46.09
2018-04-08T00:38:17.844Z,44.89
2018-04-08T00:41:20.329Z,44.78
2018-04-08T00:44:22.812Z,46.05
2018-04-08T00:47:25.401Z,46.65
2018-04-08T00:50:27.919Z,47.66
2018-04-08T00:53:30.404Z,49.09
2018-04-08T00:56:32.878Z,46.73
2018-04-08T00:59:35.466Z,46.37
2018-04-08T01:02:37.934Z,45.72
2018-04-08T01:05:40.446Z,46.57
2018-04-08T01:08:42.950Z,46.93
2018-04-08T01:11:45.470Z,46.90
2018-04-08T01:14:47.946Z,46.19
2018-04-08T01:17:50.392Z,45.67
2018-04-08T01:20:52.888Z,46.35
2018-04-08T01:23:55.370Z,46.24
2018-04-08T01:26:57.852Z,45.16
2018-04-08T01:30:00.349Z,45.13
2018-04-08T01:33:02.846Z,45.46
2018-04-08T01:36:05.309Z,45.57
2018-04-08T01:39:07.856Z,44.44
2018-04-08T01:42:10.385Z,43.33
2018-04-08T01:45:12.882Z,44.15
2018-04-08T01:48:15.356Z,44.32
2018-04-08T01:51:17.809Z,44.15
2018-04-08T01:54:20.364Z,44.12
2018-04-08T01:57:22.851Z,43.56
2018-04-08T02:00:25.366Z,43.00
2018-04-08T02:03:27.826Z,43.78
2018-04-08T02:06:30.325Z,43.13
2018-04-08T02:09:32.839Z,43.37
2018-04-08T02:12:35.331Z,43.71
2018-04-08T02:15:37.895Z,43.85
2018-04-08T02:18:40.362Z,42.96
2018-04-08T02:21:42.900Z,42.83
2018-04-08T02:24:45.380Z,44.04
2018-04-08T02:27:47.902Z,43.81
2018-04-08T02:30:50.402Z,43.67
2018-04-08T02:33:52.937Z,43.11
2018-04-08T02:36:55.463Z,43.32
2018-04-08T02:39:57.926Z,43.56
2018-04-08T02:43:00.457Z,43.29
2018-04-08T02:46:03.036Z,43.83
2018-04-08T02:49:05.549Z,43.82
2018-04-08T02:52:08.037Z,44.16
2018-04-08T02:55:10.525Z,45.07
2018-04-08T02:58:13.009Z,45.47
2018-04-08T03:01:15.515Z,44.74
2018-04-08T03:04:18.082Z,44.64
2018-04-08T03:07:20.643Z,45.87
2018-04-08T03:10:23.216Z,43.32
2018-04-08T03:13:25.882Z,43.86
2018-04-08T03:16:28.442Z,44.85
2018-04-08T03:19:31.003Z,43.03
2018-04-08T03:22:33.494Z,43.95
2018-04-08T03:25:36.067Z,44.83
2018-04-08T03:28:38.552Z,44.52
2018-04-08T03:31:41.100Z,45.38
2018-04-08T03:34:43.556Z,45.92
2018-04-08T03:37:46.037Z,45.28
2018-04-08T03:40:48.493Z,45.20
2018-04-08T03:43:51.072Z,46.02
2018-04-08T03:46:53.666Z,46.03
2018-04-08T03:49:56.180Z,45.43
2018-04-08T03:52:58.687Z,46.22
2018-04-08T03:56:01.199Z,47.67
2018-04-08T03:59:03.692Z,47.18
2018-04-08T04:02:06.164Z,47.35
2018-04-08T04:05:08.674Z,46.76
2018-04-08T04:08:11.162Z,46.75
2018-04-08T04:11:13.755Z,46.25
2018-04-08T04:14:16.257Z,45.64
2018-04-08T04:17:18.844Z,45.67
2018-04-08T04:24:28.687Z,45.77
2018-04-08T04:27:31.153Z,44.40
2018-04-08T04:30:33.642Z,43.46
2018-04-08T04:33:36.111Z,44.70
2018-04-08T04:36:38.635Z,44.58
2018-04-08T04:39:41.139Z,45.69
2018-04-08T04:42:43.644Z,45.24
2018-04-08T04:45:46.207Z,45.47
2018-04-08T04:48:48.682Z,45.64
2018-04-08T04:51:51.159Z,44.65
2018-04-08T04:54:53.695Z,45.13
2018-04-08T04:57:56.199Z,46.57
2018-04-08T05:00:59.628Z,44.64
2018-04-08T05:04:02.106Z,44.73
2018-04-08T05:07:04.565Z,44.31
2018-04-08T05:10:07.123Z,43.86
2018-04-08T05:13:09.682Z,43.69
2018-04-08T05:16:12.144Z,42.10
2018-04-08T05:19:14.676Z,40.23
2018-04-08T05:22:17.138Z,40.07
2018-04-08T05:25:19.617Z,37.75
2018-04-08T05:28:22.158Z,36.75
2018-04-08T05:31:25.554Z,36.95
2018-04-08T05:34:28.043Z,37.22
2018-04-08T05:37:31.470Z,37.58
2018-04-08T05:40:33.968Z,37.78
2018-04-08T05:43:36.465Z,38.45
2018-04-08T05:46:39.048Z,37.03
2018-04-08T05:49:42.781Z,34.30
2018-04-08T05:52:45.303Z,36.34
2018-04-08T05:55:48.989Z,36.88
2018-04-08T05:58:51.487Z,37.46
2018-04-08T06:01:54.017Z,38.26
2018-04-08T06:04:56.511Z,37.67
2018-04-08T06:07:58.964Z,39.39
2018-04-08T06:11:01.465Z,38.87
2018-04-08T06:14:03.955Z,37.04
2018-04-08T06:17:06.413Z,37.78
2018-04-08T06:20:08.954Z,38.33
2018-04-08T06:23:11.447Z,38.93
2018-04-08T06:26:13.893Z,37.56
2018-04-08T06:29:16.436Z,36.29
2018-04-08T06:32:18.892Z,35.01
2018-04-08T06:35:22.194Z,35.44
2018-04-08T06:38:24.651Z,34.15
2018-04-08T06:41:27.131Z,30.87
2018-04-08T06:44:29.637Z,32.12
2018-04-08T06:47:32.199Z,36.09
2018-04-08T06:50:34.709Z,35.41
2018-04-08T06:53:37.238Z,36.46
2018-04-08T06:56:39.699Z,38.24
2018-04-08T06:59:42.249Z,34.71
2018-04-08T07:02:44.789Z,37.63
2018-04-08T07:05:47.373Z,37.37
2018-04-08T07:08:49.949Z,37.21
2018-04-08T07:11:52.492Z,37.65
2018-04-08T07:14:55.002Z,37.81
2018-04-08T07:17:57.523Z,37.36
2018-04-08T07:21:00.063Z,38.00
2018-04-08T07:24:02.835Z,37.70
2018-04-08T07:27:05.313Z,36.93
2018-04-08T07:30:08.046Z,37.85
2018-04-08T07:33:10.645Z,39.10
2018-04-08T07:36:13.139Z,37.78
2018-04-08T07:39:15.611Z,38.81
2018-04-08T07:42:18.113Z,37.07
2018-04-08T07:45:20.596Z,36.11
2018-04-08T07:48:23.160Z,36.99
2018-04-08T07:51:25.614Z,37.86
2018-04-08T07:54:28.110Z,38.85
2018-04-08T07:57:30.570Z,36.96
2018-04-08T08:00:33.101Z,38.92
2018-04-08T08:03:35.569Z,38.08
2018-04-08T08:06:38.086Z,37.85
2018-04-08T08:09:40.590Z,38.46
2018-04-08T08:12:43.248Z,37.31
2018-04-08T08:15:45.691Z,37.33
2018-04-08T08:18:48.216Z,37.48
2018-04-08T08:21:50.717Z,36.88
2018-04-08T08:24:53.207Z,36.59
2018-04-08T08:27:55.755Z,38.72
2018-04-08T08:30:58.304Z,38.95
2018-04-08T08:34:00.834Z,38.39
2018-04-08T08:37:03.344Z,39.57
2018-04-08T08:40:05.860Z,38.77
2018-04-08T08:43:08.340Z,38.78
2018-04-08T08:46:10.864Z,37.72
2018-04-08T08:49:13.366Z,35.89
2018-04-08T08:52:15.975Z,39.03
2018-04-08T08:55:18.466Z,36.65
2018-04-08T08:58:21.179Z,38.52
2018-04-08T09:01:23.690Z,38.50
2018-04-08T09:04:26.452Z,36.61
2018-04-08T09:07:29.045Z,36.01
2018-04-08T09:10:31.634Z,34.43
2018-04-08T09:13:34.301Z,33.15
2018-04-08T09:16:36.793Z,35.63
2018-04-08T09:19:48.697Z,34.15
2018-04-08T09:22:54.671Z,35.69
2018-04-08T09:25:59.636Z,33.02
2018-04-08T09:29:02.221Z,32.89
2018-04-08T09:32:04.720Z,35.53
2018-04-08T09:35:07.220Z,34.43
2018-04-08T09:38:09.761Z,33.48
2018-04-08T09:41:12.262Z,34.03
2018-04-08T09:44:14.816Z,34.27
2018-04-08T09:47:17.330Z,34.70
2018-04-08T09:50:19.987Z,32.77
2018-04-08T09:53:22.460Z,31.55
2018-04-08T09:56:24.951Z,32.69
2018-04-08T09:59:27.661Z,30.49
2018-04-08T10:02:36.798Z,29.93
2018-04-08T10:05:39.370Z,29.90
2018-04-08T10:08:41.921Z,29.22
2018-04-08T10:11:44.407Z,31.46
2018-04-08T10:14:46.886Z,30.78
2018-04-08T10:17:49.412Z,30.91
2018-04-08T10:20:51.910Z,29.48
2018-04-08T10:23:54.392Z,32.68
2018-04-08T10:26:56.983Z,31.45
2018-04-08T10:29:59.492Z,32.27
2018-04-08T10:33:01.981Z,32.73
2018-04-08T10:36:04.533Z,32.15
2018-04-08T10:39:07.038Z,33.22
2018-04-08T10:42:10.318Z,33.80
2018-04-08T10:45:12.985Z,31.54
2018-04-08T10:48:15.544Z,32.12
2018-04-08T10:51:18.816Z,31.02
2018-04-08T10:54:21.347Z,31.56
2018-04-08T10:57:23.940Z,30.30
2018-04-08T11:00:26.412Z,30.61
2018-04-08T11:03:28.933Z,31.28
2018-04-08T11:06:32.113Z,29.39
2018-04-08T11:09:34.563Z,31.36
2018-04-08T11:12:37.620Z,29.77
2018-04-08T11:15:40.081Z,28.65
2018-04-08T11:18:43.091Z,29.07
2018-04-08T11:21:45.780Z,30.14
2018-04-08T11:24:48.344Z,29.24
2018-04-08T11:27:50.909Z,27.62
2018-04-08T11:30:53.446Z,28.23
2018-04-08T11:33:55.942Z,28.23
2018-04-08T11:36:58.452Z,28.14
2018-04-08T11:40:00.903Z,25.91
2018-04-08T11:43:03.430Z,27.65
2018-04-08T11:46:05.926Z,28.69
2018-04-08T11:49:08.428Z,28.04
2018-04-08T11:52:10.968Z,28.70
2018-04-08T11:55:13.504Z,26.59
2018-04-08T11:58:15.999Z,26.55
2018-04-08T12:01:18.524Z,29.02
2018-04-08T12:04:21.068Z,28.19
2018-04-08T12:07:23.533Z,29.90
2018-04-08T12:10:26.049Z,27.96
2018-04-08T12:13:28.531Z,28.84
2018-04-08T12:16:31.034Z,29.87
2018-04-08T12:19:33.568Z,27.84
2018-04-08T12:22:36.082Z,29.26
2018-04-08T12:25:38.543Z,29.62
2018-04-08T12:28:41.043Z,26.39
2018-04-08T12:31:43.537Z,28.23
2018-04-08T12:34:46.045Z,28.42
2018-04-08T12:37:48.587Z,28.85
2018-04-08T12:40:51.092Z,25.82
2018-04-08T12:43:53.571Z,27.57
2018-04-08T12:46:56.122Z,28.84
2018-04-08T12:49:58.574Z,26.57
2018-04-08T12:53:01.085Z,27.39
2018-04-08T12:56:03.569Z,27.51
2018-04-08T12:59:06.080Z,29.49
2018-04-08T13:02:08.562Z,28.36
2018-04-08T13:05:11.058Z,28.00
2018-04-08T13:08:13.584Z,28.48
2018-04-08T13:11:16.107Z,27.30
2018-04-08T13:14:19.887Z,25.91
2018-04-08T13:17:22.448Z,26.88
2018-04-08T13:20:24.949Z,28.13
2018-04-08T13:23:27.435Z,28.14
2018-04-08T13:26:29.954Z,30.13
2018-04-08T13:29:32.449Z,26.42
2018-04-08T13:32:35.062Z,26.17
2018-04-08T13:35:37.562Z,26.42
2018-04-08T13:38:40.186Z,26.44
2018-04-08T13:41:42.705Z,28.37
2018-04-08T13:44:45.205Z,27.70
2018-04-08T13:47:47.726Z,27.56
2018-04-08T13:50:50.234Z,27.34
2018-04-08T13:53:52.726Z,26.20
2018-04-08T13:56:55.336Z,26.08
2018-04-08T13:59:57.919Z,27.78
2018-04-08T14:03:00.495Z,28.77
2018-04-08T14:06:03.000Z,26.55
2018-04-08T14:09:06.231Z,24.37
2018-04-08T14:12:08.877Z,27.20
2018-04-08T14:15:11.460Z,27.86
2018-04-08T14:18:14.012Z,27.35
2018-04-08T14:21:16.576Z,27.52
2018-04-08T14:24:19.174Z,27.49
2018-04-08T14:27:21.728Z,26.75
2018-04-08T14:30:24.184Z,28.52
2018-04-08T14:33:26.928Z,24.89
2018-04-08T14:36:29.449Z,25.21
2018-04-08T14:39:32.059Z,25.38
2018-04-08T14:42:34.578Z,24.57
2018-04-08T14:45:37.104Z,24.56
2018-04-08T14:48:39.595Z,23.94
2018-04-08T14:51:42.171Z,24.53
2018-04-08T14:54:44.671Z,26.42
2018-04-08T14:57:47.240Z,24.89
2018-04-08T15:00:49.725Z,24.91
2018-04-08T15:03:52.343Z,26.30
2018-04-08T15:06:54.881Z,25.11
2018-04-08T15:09:57.389Z,26.89
2018-04-08T15:12:59.885Z,30.18
2018-04-08T15:16:02.458Z,30.13
2018-04-08T15:19:04.945Z,29.00
2018-04-08T15:22:07.489Z,29.40
2018-04-08T15:25:10.090Z,29.31
2018-04-08T15:28:12.613Z,32.86
2018-04-08T15:31:15.105Z,36.34
2018-04-08T15:34:17.676Z,33.66
2018-04-08T15:37:20.240Z,34.58
2018-04-08T15:40:22.756Z,35.36
2018-04-08T15:43:25.294Z,37.24
2018-04-08T15:46:27.824Z,35.69
2018-04-08T15:49:30.381Z,36.63
2018-04-08T15:52:32.841Z,37.10
2018-04-08T15:55:35.340Z,38.45
2018-04-08T15:58:37.820Z,38.34
2018-04-08T16:01:40.349Z,38.54
2018-04-08T16:04:42.839Z,38.48
2018-04-08T16:07:45.355Z,38.91
2018-04-08T16:10:47.849Z,38.44
2018-04-08T16:13:50.365Z,39.91
2018-04-08T16:16:52.852Z,40.68
2018-04-08T16:19:55.709Z,40.75
2018-04-08T16:22:58.225Z,42.10
2018-04-08T16:26:00.695Z,42.53
2018-04-08T16:29:03.197Z,41.47
2018-04-08T16:32:05.724Z,40.88
2018-04-08T16:35:08.247Z,41.87
2018-04-08T16:38:10.775Z,41.93
2018-04-08T16:41:13.445Z,41.90
2018-04-08T16:44:17.021Z,42.30
2018-04-08T16:47:19.606Z,41.94
2018-04-08T16:50:22.092Z,42.04
2018-04-08T16:53:24.606Z,41.46
2018-04-08T16:56:27.152Z,42.98
2018-04-08T16:59:29.697Z,42.62
2018-04-08T17:05:41.265Z,43.84
2018-04-08T17:08:43.838Z,44.13
2018-04-08T17:11:46.375Z,44.67
2018-04-08T17:14:48.861Z,44.35
2018-04-08T17:17:51.421Z,44.61
2018-04-08T17:20:54.130Z,45.28
2018-04-08T17:23:56.735Z,45.50
2018-04-08T17:26:59.252Z,45.81
2018-04-08T17:30:01.759Z,46.05
2018-04-08T17:33:04.382Z,46.87
2018-04-08T17:36:06.931Z,46.63
2018-04-08T17:39:09.436Z,46.66
2018-04-08T17:42:11.972Z,47.42
2018-04-08T17:45:14.733Z,47.22
2018-04-08T17:48:17.306Z,47.63
2018-04-08T17:51:19.838Z,48.01
2018-04-08T17:54:22.432Z,48.46
2018-04-08T17:57:24.941Z,48.80
2018-04-08T18:00:27.493Z,49.04
2018-04-08T18:03:29.997Z,50.08
2018-04-08T18:06:32.575Z,49.86
2018-04-08T18:09:35.200Z,50.45
2018-04-08T18:12:37.780Z,50.59
2018-04-08T18:15:41.060Z,50.91
2018-04-08T18:18:43.518Z,51.53
2018-04-08T18:21:46.072Z,51.92
2018-04-08T18:24:48.667Z,51.97
2018-04-08T18:27:51.228Z,51.62
2018-04-08T18:30:53.799Z,51.66
2018-04-08T18:33:56.461Z,51.23
2018-04-08T18:36:58.986Z,51.46
2018-04-08T18:40:01.519Z,51.37
2018-04-08T18:43:04.055Z,51.43
2018-04-08T18:46:06.806Z,51.35
2018-04-08T18:49:09.368Z,51.04
2018-04-08T18:52:11.843Z,51.40
2018-04-08T18:55:14.366Z,51.40
2018-04-08T18:58:16.914Z,51.17
2018-04-08T19:01:19.744Z,51.81
2018-04-08T19:04:22.369Z,51.98
2018-04-08T19:07:24.879Z,52.20
2018-04-08T19:10:28.214Z,52.27
2018-04-08T19:13:30.743Z,52.57
2018-04-08T19:16:33.277Z,52.49
2018-04-08T19:19:36.622Z,52.56
2018-04-08T19:22:39.183Z,52.52
2018-04-08T19:25:41.741Z,52.56
2018-04-08T19:28:44.323Z,52.87
2018-04-08T19:31:47.454Z,52.55
2018-04-08T19:34:49.988Z,52.72
2018-04-08T19:37:52.539Z,52.62
2018-04-08T19:40:55.051Z,53.04
2018-04-08T19:43:57.598Z,53.32
2018-04-08T19:47:00.063Z,53.76
2018-04-08T19:50:02.653Z,53.84
2018-04-08T19:53:05.853Z,54.26
2018-04-08T19:56:08.361Z,54.78
2018-04-08T19:59:10.959Z,55.43
2018-04-08T20:02:14.718Z,56.34
2018-04-08T20:05:17.333Z,56.39
2018-04-08T20:08:19.915Z,57.04
2018-04-08T20:11:22.572Z,57.47
2018-04-08T20:14:25.160Z,57.71
2018-04-08T20:17:27.610Z,57.88
2018-04-08T20:20:30.248Z,58.60
2018-04-08T20:23:32.744Z,58.80
2018-04-08T20:26:35.305Z,59.12
2018-04-08T20:29:37.793Z,59.41
2018-04-08T20:32:40.398Z,59.80
2018-04-08T20:35:42.964Z,60.27
2018-04-08T20:38:45.533Z,60.47
2018-04-08T20:41:48.039Z,60.69
2018-04-08T20:44:52.004Z,61.00
2018-04-08T20:47:54.658Z,61.14
2018-04-08T20:50:57.203Z,61.44
2018-04-08T20:53:59.759Z,61.07
2018-04-08T20:57:02.334Z,61.02
2018-04-08T21:00:04.899Z,60.99
2018-04-08T21:03:07.458Z,61.31
2018-04-08T21:06:09.995Z,61.46
2018-04-08T21:09:12.569Z,60.54
2018-04-08T21:12:15.150Z,60.41
2018-04-08T21:15:17.680Z,60.38
2018-04-08T21:18:20.228Z,59.93
2018-04-08T21:21:22.755Z,59.61
2018-04-08T21:24:25.299Z,59.03
2018-04-08T21:27:27.774Z,59.32
2018-04-08T21:30:30.281Z,58.87
2018-04-08T21:33:32.839Z,57.94
2018-04-08T21:36:35.380Z,57.03
2018-04-08T21:39:37.894Z,56.47
2018-04-08T21:42:40.460Z,56.05
2018-04-08T21:45:43.029Z,56.45
2018-04-08T21:48:45.509Z,57.13
2018-04-08T21:51:48.005Z,56.19
2018-04-08T21:54:50.504Z,57.26
2018-04-08T21:57:52.979Z,56.42
2018-04-08T22:00:55.486Z,56.10
2018-04-08T22:03:58.062Z,57.32
2018-04-08T22:07:00.511Z,56.97
2018-04-08T22:10:03.133Z,57.26
2018-04-08T22:13:05.617Z,57.19
2018-04-08T22:16:08.104Z,57.65
2018-04-08T22:19:10.594Z,57.71
2018-04-08T22:22:13.124Z,57.95
2018-04-08T22:25:15.620Z,56.27
2018-04-08T22:28:19.207Z,57.29
2018-04-08T22:31:21.737Z,56.09
2018-04-08T22:34:24.235Z,56.07
2018-04-08T22:37:26.755Z,56.07
2018-04-08T22:40:30.211Z,56.13
2018-04-08T22:43:32.716Z,56.68
2018-04-08T22:46:35.222Z,56.40
2018-04-08T22:49:37.686Z,57.28
2018-04-08T22:52:40.210Z,57.50
2018-04-08T22:55:43.096Z,57.11
2018-04-08T22:58:45.599Z,57.63
2018-04-08T23:01:48.081Z,58.38
2018-04-08T23:04:50.602Z,58.73
2018-04-08T23:07:53.081Z,58.16
2018-04-08T23:10:55.559Z,58.00
2018-04-08T23:13:58.011Z,58.21
2018-04-08T23:17:00.751Z,58.22
2018-04-08T23:20:03.222Z,58.35
2018-04-08T23:23:05.760Z,57.80
2018-04-08T23:26:08.316Z,57.62
2018-04-08T23:29:10.831Z,57.35
2018-04-08T23:32:13.345Z,57.98
2018-04-08T23:35:15.860Z,58.09
2018-04-08T23:38:18.364Z,58.48
2018-04-08T23:41:20.946Z,58.03
2018-04-08T23:44:23.454Z,58.57
2018-04-08T23:47:25.991Z,59.45
2018-04-08T23:50:28.617Z,60.07
2018-04-08T23:53:31.205Z,60.76
2018-04-08T23:56:33.716Z,60.74
2018-04-08T23:59:36.290Z,60.35
